createdAt,value
2022-08-07T00:00:52.844Z,44.95
2022-08-07T00:03:21.445Z,44.84
2022-08-07T00:05:53.957Z,45.01
2022-08-07T00:08:22.707Z,44.73
2022-08-07T00:10:57.229Z,45.12
2022-08-07T00:13:25.785Z,44.97
2022-08-07T00:15:54.020Z,44.81
2022-08-07T00:18:25.133Z,44.75
2022-08-07T00:21:07.911Z,45.02
2022-08-07T00:23:37.025Z,45.21
2022-08-07T00:26:18.811Z,44.92
2022-08-07T00:28:55.343Z,45.02
2022-08-07T00:31:37.954Z,44.99
2022-08-07T00:34:08.802Z,44.99
2022-08-07T00:36:36.432Z,45.11
2022-08-07T00:39:09.473Z,45.19
2022-08-07T00:41:53.809Z,45.12
2022-08-07T00:44:28.153Z,45.12
2022-08-07T00:46:55.368Z,45.14
2022-08-07T00:49:24.903Z,45.58
2022-08-07T00:52:09.907Z,45.42
2022-08-07T00:54:36.547Z,45.22
2022-08-07T00:57:07.538Z,45.30
2022-08-07T00:59:37.494Z,45.31
2022-08-07T01:02:14.258Z,45.07
2022-08-07T01:04:53.969Z,45.28
2022-08-07T01:07:25.372Z,45.47
2022-08-07T01:10:07.236Z,45.08
2022-08-07T01:12:53.434Z,45.19
2022-08-07T01:16:01.336Z,45.35
2022-08-07T01:18:11.183Z,45.07
2022-08-07T01:20:59.308Z,45.20
2022-08-07T01:23:36.776Z,45.23
2022-08-07T01:26:12.166Z,44.99
2022-08-07T01:28:45.851Z,45.19
2022-08-07T01:31:19.699Z,45.05
2022-08-07T01:33:55.546Z,45.40
2022-08-07T01:36:33.789Z,45.22
2022-08-07T01:39:10.052Z,45.00
2022-08-07T01:42:07.205Z,45.19
2022-08-07T01:44:31.967Z,45.41
2022-08-07T01:47:01.151Z,45.09
2022-08-07T01:49:43.153Z,45.50
2022-08-07T01:54:41.692Z,45.30
2022-08-07T01:58:01.408Z,45.74
2022-08-07T02:00:13.259Z,45.36
2022-08-07T02:03:19.334Z,45.62
2022-08-07T02:05:47.711Z,45.52
2022-08-07T02:08:25.876Z,45.63
2022-08-07T02:10:57.950Z,45.34
2022-08-07T02:13:58.625Z,45.49
2022-08-07T02:16:28.745Z,45.57
2022-08-07T02:19:02.834Z,45.34
2022-08-07T02:21:55.379Z,45.33
2022-08-07T02:24:23.203Z,45.60
2022-08-07T02:26:50.985Z,45.54
2022-08-07T02:29:21.934Z,45.55
2022-08-07T02:31:51.563Z,45.40
2022-08-07T02:34:21.395Z,45.71
2022-08-07T02:39:17.102Z,45.34
2022-08-07T02:41:59.526Z,45.42
2022-08-07T02:44:34.810Z,45.48
2022-08-07T02:47:06.788Z,45.63
2022-08-07T02:49:57.726Z,45.92
2022-08-07T02:52:53.815Z,45.73
2022-08-07T02:56:02.019Z,45.71
2022-08-07T02:58:21.922Z,45.58
2022-08-07T03:00:58.247Z,45.88
2022-08-07T03:03:50.209Z,45.88
2022-08-07T03:06:26.009Z,45.77
2022-08-07T03:09:03.468Z,45.71
2022-08-07T03:11:38.665Z,45.50
2022-08-07T03:14:08.781Z,45.43
2022-08-07T03:16:36.292Z,45.45
2022-08-07T03:19:06.637Z,45.70
2022-08-07T03:21:35.096Z,45.50
2022-08-07T03:24:17.619Z,45.35
2022-08-07T03:26:58.958Z,45.10
2022-08-07T03:29:33.778Z,45.37
2022-08-07T03:32:05.144Z,45.16
2022-08-07T03:34:39.405Z,44.95
2022-08-07T03:37:16.761Z,45.25
2022-08-07T03:40:13.241Z,44.88
2022-08-07T03:42:37.187Z,45.03
2022-08-07T03:45:06.339Z,44.89
2022-08-07T03:47:47.749Z,45.08
2022-08-07T03:50:17.532Z,44.75
2022-08-07T03:52:51.854Z,44.91
2022-08-07T03:55:19.947Z,45.13
2022-08-07T03:58:35.020Z,44.94
2022-08-07T04:00:39.134Z,45.10
2022-08-07T04:03:13.968Z,44.83
2022-08-07T04:05:42.297Z,44.96
2022-08-07T04:08:18.432Z,45.11
2022-08-07T04:10:54.635Z,45.12
2022-08-07T04:14:11.025Z,45.04
2022-08-07T04:16:31.561Z,45.16
2022-08-07T04:19:12.262Z,45.43
2022-08-07T04:21:58.874Z,45.39
2022-08-07T04:24:34.064Z,45.33
2022-08-07T04:27:20.606Z,45.36
2022-08-07T04:30:02.285Z,45.65
2022-08-07T04:32:47.825Z,45.61
2022-08-07T04:35:16.603Z,45.67
2022-08-07T04:38:03.711Z,45.73
2022-08-07T04:42:45.725Z,45.54
2022-08-07T04:45:44.457Z,45.79
2022-08-07T04:48:12.742Z,45.54
2022-08-07T04:50:52.901Z,45.54
2022-08-07T04:54:01.006Z,45.39
2022-08-07T04:58:13.822Z,45.40
2022-08-07T05:00:14.172Z,45.23
2022-08-07T05:02:38.284Z,45.22
2022-08-07T05:05:53.292Z,45.49
2022-08-07T05:09:00.958Z,45.28
2022-08-07T05:11:57.389Z,45.46
2022-08-07T05:14:53.261Z,45.10
2022-08-07T05:17:52.968Z,45.19
2022-08-07T05:20:10.839Z,45.07
2022-08-07T05:22:41.510Z,45.26
2022-08-07T05:25:25.719Z,45.43
2022-08-07T05:28:16.178Z,45.29
2022-08-07T05:30:48.261Z,45.18
2022-08-07T05:33:17.894Z,45.19
2022-08-07T05:35:45.648Z,45.43
2022-08-07T05:39:01.330Z,45.43
2022-08-07T05:41:12.303Z,45.44
2022-08-07T05:44:08.562Z,45.48
2022-08-07T05:46:31.333Z,45.48
2022-08-07T05:48:59.891Z,45.75
2022-08-07T05:51:33.422Z,45.50
2022-08-07T05:54:13.750Z,45.76
2022-08-07T05:56:56.458Z,45.93
2022-08-07T05:59:26.210Z,45.75
2022-08-07T06:02:01.506Z,45.78
2022-08-07T06:04:31.034Z,45.69
2022-08-07T06:07:03.414Z,46.13
2022-08-07T06:10:04.563Z,46.26
2022-08-07T06:12:31.641Z,45.92
2022-08-07T06:15:05.211Z,45.86
2022-08-07T06:17:38.000Z,46.07
2022-08-07T06:20:12.663Z,45.85
2022-08-07T06:23:09.371Z,45.99
2022-08-07T06:25:54.666Z,45.96
2022-08-07T06:28:27.457Z,45.75
2022-08-07T06:30:58.253Z,46.07
2022-08-07T06:33:27.339Z,46.05
2022-08-07T06:36:11.901Z,45.89
2022-08-07T06:38:58.981Z,45.91
2022-08-07T06:42:01.063Z,45.76
2022-08-07T06:44:51.550Z,45.63
2022-08-07T06:47:21.093Z,45.69
2022-08-07T06:49:51.503Z,45.67
2022-08-07T06:52:31.287Z,45.63
2022-08-07T06:55:31.678Z,45.18
2022-08-07T06:58:01.105Z,44.45
2022-08-07T07:00:36.593Z,43.88
2022-08-07T07:03:10.692Z,43.35
2022-08-07T07:06:03.766Z,43.24
2022-08-07T07:08:33.245Z,42.72
2022-08-07T07:13:55.935Z,42.42
2022-08-07T07:16:30.326Z,42.01
2022-08-07T07:19:04.279Z,42.01
2022-08-07T07:22:05.121Z,42.42
2022-08-07T07:24:38.413Z,42.79
2022-08-07T07:27:13.462Z,42.99
2022-08-07T07:30:08.933Z,43.43
2022-08-07T07:32:38.825Z,43.44
2022-08-07T07:35:08.628Z,43.46
2022-08-07T07:37:45.386Z,43.47
2022-08-07T07:40:18.940Z,43.72
2022-08-07T07:42:53.804Z,43.58
2022-08-07T07:46:35.485Z,43.27
2022-08-07T07:48:34.746Z,43.31
2022-08-07T07:51:08.064Z,43.45
2022-08-07T07:53:48.142Z,43.46
2022-08-07T07:56:30.219Z,43.66
2022-08-07T07:59:00.280Z,43.23
2022-08-07T08:02:03.109Z,43.07
2022-08-07T08:04:25.639Z,43.00
2022-08-07T08:06:53.999Z,42.98
2022-08-07T08:09:29.303Z,42.80
2022-08-07T08:12:03.082Z,42.51
2022-08-07T08:14:36.386Z,42.63
2022-08-07T08:17:55.258Z,42.34
2022-08-07T08:20:19.494Z,42.36
2022-08-07T08:23:08.568Z,42.61
2022-08-07T08:25:58.023Z,42.50
2022-08-07T08:28:38.754Z,42.39
2022-08-07T08:31:15.613Z,42.46
2022-08-07T08:33:49.402Z,42.33
2022-08-07T08:36:25.444Z,42.47
2022-08-07T08:38:54.398Z,42.38
2022-08-07T08:41:58.253Z,42.28
2022-08-07T08:44:48.659Z,42.39
2022-08-07T08:47:29.539Z,42.49
2022-08-07T08:50:09.227Z,42.38
2022-08-07T08:52:55.858Z,42.48
2022-08-07T08:55:54.848Z,42.52
2022-08-07T08:58:54.243Z,42.49
2022-08-07T09:01:40.060Z,42.70
2022-08-07T09:04:31.516Z,42.98
2022-08-07T09:06:59.170Z,42.81
2022-08-07T09:09:42.599Z,43.02
2022-08-07T09:12:31.750Z,42.96
2022-08-07T09:16:22.815Z,42.90
2022-08-07T09:18:26.322Z,43.16
2022-08-07T09:21:03.752Z,43.35
2022-08-07T09:24:33.578Z,43.45
2022-08-07T09:26:40.357Z,43.61
2022-08-07T09:31:57.781Z,44.14
2022-08-07T09:34:58.122Z,44.25
2022-08-07T09:37:48.251Z,44.60
2022-08-07T09:40:29.956Z,44.48
2022-08-07T09:43:06.185Z,44.57
2022-08-07T09:47:25.530Z,44.64
2022-08-07T09:48:56.021Z,44.81
2022-08-07T09:52:16.513Z,44.73
2022-08-07T09:54:38.633Z,44.88
2022-08-07T09:57:24.600Z,44.90
2022-08-07T10:00:15.099Z,44.70
2022-08-07T10:03:08.160Z,44.80
2022-08-07T10:06:12.549Z,44.68
2022-08-07T10:08:59.377Z,44.54
2022-08-07T10:12:01.915Z,44.53
2022-08-07T10:15:18.364Z,44.45
2022-08-07T10:18:04.106Z,44.73
2022-08-07T10:21:02.374Z,44.73
2022-08-07T10:24:08.799Z,44.80
2022-08-07T10:26:53.078Z,44.61
2022-08-07T10:29:45.597Z,44.81
2022-08-07T10:32:51.276Z,44.82
2022-08-07T10:36:05.481Z,44.90
2022-08-07T10:39:01.559Z,44.68
2022-08-07T10:41:46.341Z,44.58
2022-08-07T10:45:08.169Z,44.56
2022-08-07T10:47:53.143Z,44.72
2022-08-07T10:50:25.908Z,44.63
2022-08-07T10:53:09.795Z,44.79
2022-08-07T10:55:50.732Z,44.79
2022-08-07T10:58:46.075Z,44.93
2022-08-07T11:01:35.217Z,44.95
2022-08-07T11:04:41.640Z,44.76
2022-08-07T11:07:56.954Z,44.98
2022-08-07T11:10:13.845Z,44.88
2022-08-07T11:12:49.035Z,45.16
2022-08-07T11:15:31.597Z,44.93
2022-08-07T11:18:06.045Z,44.93
2022-08-07T11:20:53.804Z,44.96
2022-08-07T11:23:38.981Z,45.19
2022-08-07T11:26:12.967Z,44.89
2022-08-07T11:28:55.424Z,45.02
2022-08-07T11:31:41.246Z,45.04
2022-08-07T11:34:31.200Z,45.08
2022-08-07T11:37:57.909Z,45.07
2022-08-07T11:40:33.929Z,44.77
2022-08-07T11:43:17.519Z,45.07
2022-08-07T11:46:41.285Z,45.10
2022-08-07T11:50:11.507Z,44.93
2022-08-07T11:52:49.800Z,44.82
2022-08-07T11:56:24.998Z,45.09
2022-08-07T11:58:33.553Z,44.91
2022-08-07T12:01:07.608Z,44.90
2022-08-07T12:03:44.258Z,44.63
2022-08-07T12:06:40.247Z,44.87
2022-08-07T12:09:48.097Z,44.82
2022-08-07T12:12:24.629Z,45.13
2022-08-07T12:15:17.275Z,44.65
2022-08-07T12:18:11.241Z,44.98
2022-08-07T12:20:49.322Z,44.70
2022-08-07T12:24:06.828Z,45.11
2022-08-07T12:26:47.007Z,45.04
2022-08-07T12:29:40.442Z,44.78
2022-08-07T12:32:29.709Z,44.66
2022-08-07T12:34:59.255Z,44.80
2022-08-07T12:38:09.436Z,44.70
2022-08-07T12:44:03.400Z,44.97
2022-08-07T12:46:12.243Z,44.70
2022-08-07T12:49:40.212Z,45.00
2022-08-07T12:52:14.113Z,45.01
2022-08-07T12:55:41.131Z,44.73
2022-08-07T12:58:18.411Z,44.69
2022-08-07T13:01:03.431Z,44.90
2022-08-07T13:03:59.288Z,45.08
2022-08-07T13:07:06.387Z,45.05
2022-08-07T13:10:20.905Z,44.95
2022-08-07T13:13:06.301Z,44.88
2022-08-07T13:15:38.684Z,44.74
2022-08-07T13:18:28.348Z,44.73
2022-08-07T13:21:51.198Z,44.92
2022-08-07T13:24:35.364Z,44.92
2022-08-07T13:27:33.435Z,44.61
2022-08-07T13:33:16.469Z,44.79
2022-08-07T13:36:05.598Z,44.80
2022-08-07T13:38:56.767Z,44.88
2022-08-07T13:41:41.599Z,44.70
2022-08-07T13:44:10.737Z,44.71
2022-08-07T13:46:49.424Z,44.78
2022-08-07T13:50:35.585Z,44.94
2022-08-07T13:52:26.424Z,44.73
2022-08-07T13:55:06.450Z,45.03
2022-08-07T13:57:38.447Z,44.88
2022-08-07T14:00:08.545Z,44.93
2022-08-07T14:02:56.748Z,44.85
2022-08-07T14:08:00.602Z,44.93
2022-08-07T14:10:41.985Z,44.60
2022-08-07T14:13:16.183Z,44.69
2022-08-07T14:15:50.587Z,44.99
2022-08-07T14:18:28.611Z,44.81
2022-08-07T14:22:41.098Z,44.61
2022-08-07T14:24:01.974Z,44.78
2022-08-07T14:26:36.129Z,44.51
2022-08-07T14:30:02.864Z,44.54
2022-08-07T14:31:56.367Z,44.84
2022-08-07T14:34:32.010Z,44.64
2022-08-07T14:37:03.223Z,44.75
2022-08-07T14:40:17.343Z,44.91
2022-08-07T14:45:22.468Z,44.79
2022-08-07T14:47:51.401Z,44.59
2022-08-07T14:50:27.922Z,44.65
2022-08-07T14:52:56.607Z,44.94
2022-08-07T14:55:35.800Z,44.71
2022-08-07T14:58:31.293Z,44.98
2022-08-07T15:01:00.219Z,44.80
2022-08-07T15:03:52.322Z,44.71
2022-08-07T15:06:37.929Z,44.90
2022-08-07T15:10:00.063Z,44.94
2022-08-07T15:12:05.269Z,44.95
2022-08-07T15:14:36.030Z,44.75
2022-08-07T15:17:32.595Z,44.67
2022-08-07T15:25:46.010Z,45.07
2022-08-07T15:28:35.039Z,44.83
2022-08-07T15:31:12.198Z,44.74
2022-08-07T15:33:42.670Z,44.87
2022-08-07T15:36:10.448Z,45.06
2022-08-07T15:38:59.312Z,44.95
2022-08-07T15:44:23.807Z,44.98
2022-08-07T15:50:05.426Z,45.19
2022-08-07T15:52:36.441Z,45.31
2022-08-07T15:57:48.139Z,45.04
2022-08-07T16:00:32.214Z,44.93
2022-08-07T16:03:46.306Z,45.00
2022-08-07T16:06:13.001Z,44.91
2022-08-07T16:08:46.444Z,44.97
2022-08-07T16:11:28.994Z,45.25
2022-08-07T16:14:19.271Z,45.12
2022-08-07T16:17:00.740Z,45.07
2022-08-07T16:19:41.952Z,45.02
2022-08-07T16:22:36.270Z,45.25
2022-08-07T16:25:23.241Z,45.29
2022-08-07T16:30:06.067Z,45.29
2022-08-07T16:32:01.456Z,45.23
2022-08-07T16:34:51.960Z,45.07
2022-08-07T16:40:23.371Z,45.25
2022-08-07T16:43:01.096Z,45.27
2022-08-07T16:48:15.200Z,45.17
2022-08-07T16:51:20.894Z,45.33
2022-08-07T16:54:01.942Z,45.31
2022-08-07T16:56:49.484Z,45.49
2022-08-07T16:59:46.073Z,45.43
2022-08-07T17:02:51.502Z,45.48
2022-08-07T17:06:26.613Z,45.17
2022-08-07T17:08:09.201Z,45.38
2022-08-07T17:10:54.297Z,45.27
2022-08-07T17:13:38.857Z,45.18
2022-08-07T17:16:25.483Z,45.37
2022-08-07T17:18:52.110Z,45.46
2022-08-07T17:21:24.534Z,45.54
2022-08-07T17:24:18.158Z,45.54
2022-08-07T17:27:05.368Z,45.42
2022-08-07T17:30:15.157Z,45.19
2022-08-07T17:32:59.742Z,45.32
2022-08-07T17:36:02.727Z,45.55
2022-08-07T17:38:47.472Z,45.22
2022-08-07T17:42:04.015Z,45.54
2022-08-07T17:44:45.510Z,45.53
2022-08-07T17:47:38.574Z,45.64
2022-08-07T17:50:22.767Z,45.79
2022-08-07T17:56:00.248Z,46.06
2022-08-07T17:58:30.511Z,46.13
2022-08-07T18:01:03.029Z,45.86
2022-08-07T18:04:06.781Z,46.41
2022-08-07T18:06:58.203Z,46.25
2022-08-07T18:10:04.380Z,46.35
2022-08-07T18:12:34.038Z,46.28
2022-08-07T18:15:11.687Z,46.64
2022-08-07T18:18:45.763Z,46.51
2022-08-07T18:21:51.584Z,46.39
2022-08-07T18:24:33.152Z,46.42
2022-08-07T18:27:39.199Z,46.59
2022-08-07T18:30:32.428Z,46.64
2022-08-07T18:33:34.335Z,46.36
2022-08-07T18:36:05.972Z,46.20
2022-08-07T18:38:58.723Z,45.94
2022-08-07T18:41:45.829Z,45.78
2022-08-07T18:45:09.056Z,45.43
2022-08-07T18:47:44.965Z,44.77
2022-08-07T18:50:39.739Z,44.45
2022-08-07T18:53:13.917Z,43.96
2022-08-07T18:56:30.864Z,43.80
2022-08-07T18:59:47.782Z,43.39
2022-08-07T19:02:34.549Z,42.79
2022-08-07T19:07:59.391Z,42.53
2022-08-07T19:10:49.783Z,42.00
2022-08-07T19:13:54.572Z,42.09
2022-08-07T19:17:01.278Z,41.94
2022-08-07T19:19:32.630Z,41.55
2022-08-07T19:22:14.879Z,41.60
2022-08-07T19:24:48.288Z,41.34
2022-08-07T19:28:57.147Z,41.25
2022-08-07T19:31:00.908Z,41.23
2022-08-07T19:33:10.175Z,40.74
2022-08-07T19:35:47.214Z,40.81
2022-08-07T19:38:16.985Z,40.51
2022-08-07T19:40:50.504Z,40.24
2022-08-07T19:43:51.195Z,40.29
2022-08-07T19:46:26.702Z,40.32
2022-08-07T19:49:06.843Z,40.01
2022-08-07T19:51:53.054Z,40.49
2022-08-07T19:54:31.939Z,40.52
2022-08-07T19:58:02.926Z,40.35
2022-08-07T20:00:08.788Z,40.18
2022-08-07T20:02:52.211Z,40.21
2022-08-07T20:05:28.189Z,40.07
2022-08-07T20:08:02.157Z,40.20
2022-08-07T20:10:36.867Z,39.93
2022-08-07T20:13:27.302Z,39.83
2022-08-07T20:16:02.590Z,39.70
2022-08-07T20:18:33.743Z,39.79
2022-08-07T20:21:14.280Z,39.70
2022-08-07T20:23:54.343Z,39.39
2022-08-07T20:26:32.271Z,39.57
2022-08-07T20:29:46.486Z,39.43
2022-08-07T20:31:59.866Z,39.39
2022-08-07T20:34:49.431Z,39.24
2022-08-07T20:37:21.841Z,39.57
2022-08-07T20:40:03.295Z,39.72
2022-08-07T20:42:34.074Z,39.49
2022-08-07T20:45:33.677Z,39.42
2022-08-07T20:47:56.109Z,39.91
2022-08-07T20:50:26.893Z,39.76
2022-08-07T20:52:53.910Z,39.74
2022-08-07T20:55:23.630Z,39.75
2022-08-07T20:58:02.533Z,39.70
2022-08-07T21:00:45.910Z,39.97
2022-08-07T21:03:19.126Z,39.59
2022-08-07T21:05:56.821Z,39.71
2022-08-07T21:08:37.972Z,39.82
2022-08-07T21:11:10.822Z,39.98
2022-08-07T21:14:16.595Z,40.04
2022-08-07T21:16:37.626Z,39.83
2022-08-07T21:19:15.683Z,40.05
2022-08-07T21:24:12.005Z,40.04
2022-08-07T21:26:42.845Z,40.14
2022-08-07T21:29:22.820Z,40.14
2022-08-07T21:32:47.762Z,39.94
2022-08-07T21:35:11.249Z,39.83
2022-08-07T21:37:58.209Z,39.88
2022-08-07T21:40:58.460Z,40.15
2022-08-07T21:43:55.576Z,40.17
2022-08-07T21:46:32.964Z,39.82
2022-08-07T21:49:14.460Z,40.11
2022-08-07T21:51:55.673Z,39.88
2022-08-07T21:54:35.001Z,40.04
2022-08-07T21:57:31.317Z,40.08
2022-08-07T22:00:22.035Z,40.13
2022-08-07T22:03:16.755Z,40.10
2022-08-07T22:05:58.402Z,39.79
2022-08-07T22:08:40.550Z,39.79
2022-08-07T22:11:11.114Z,39.64
2022-08-07T22:13:51.282Z,39.89
2022-08-07T22:16:46.885Z,39.72
2022-08-07T22:19:37.003Z,39.64
2022-08-07T22:22:28.933Z,39.78
2022-08-07T22:25:03.354Z,39.70
2022-08-07T22:28:29.529Z,39.95
2022-08-07T22:31:05.493Z,39.86
2022-08-07T22:33:57.038Z,39.58
2022-08-07T22:36:24.160Z,39.53
2022-08-07T22:39:04.912Z,39.44
2022-08-07T22:42:03.098Z,39.54
2022-08-07T22:44:34.460Z,39.59
2022-08-07T22:47:18.687Z,39.67
2022-08-07T22:50:08.057Z,39.30
2022-08-07T22:52:59.394Z,39.22
2022-08-07T22:55:41.417Z,39.45
2022-08-07T22:58:27.980Z,39.29
2022-08-07T23:01:05.448Z,39.33
2022-08-07T23:03:57.385Z,39.28
2022-08-07T23:06:51.333Z,39.17
2022-08-07T23:10:05.453Z,39.36
2022-08-07T23:12:33.994Z,39.27
2022-08-07T23:15:07.494Z,38.96
2022-08-07T23:17:49.609Z,39.25
2022-08-07T23:20:51.101Z,39.07
2022-08-07T23:24:05.708Z,38.80
2022-08-07T23:26:50.383Z,38.92
2022-08-07T23:30:35.405Z,39.10
2022-08-07T23:34:23.334Z,39.05
2022-08-07T23:35:41.903Z,39.06
2022-08-07T23:38:36.285Z,38.92
2022-08-07T23:41:33.074Z,38.75
2022-08-07T23:44:29.976Z,38.90
2022-08-07T23:47:12.215Z,38.70
2022-08-07T23:49:42.293Z,38.96
2022-08-07T23:53:06.242Z,38.76
2022-08-07T23:56:23.864Z,39.02
